LICR/REG METAR and TAF weather

Enter ICAO airport designator
Station Type Date Time Source
LICR METAR 2019/05/27 09:50 UTC NOAA

LICR 270950Z 17013KT CAVOK 23/14 Q1009


Station Type Date Time Source
LICR Decoded METAR 2019/05/27 09:50 UTC NOAA

Reggio Calabria, Italy (LICR) 38-04N 015-39E 21M
May 27, 2019 - 05:50 AM EDT / 2019.05.27 0950 UTC
Wind: from the S (170 degrees) at 15 MPH (13 KT):0
Visibility: greater than 7 mile(s):0
Temperature: 73 F (23 C)
Dew Point: 57 F (14 C)
Relative Humidity: 56%
Pressure (altimeter): 29.80 in. Hg (1009 hPa)
ob: LICR 270950Z 17013KT CAVOK 23/14 Q1009
cycle: 10

Station Type Date Time Source
LICR TAF 2019/05/27 06:25 UTC NOAA

TAF LICR 270500Z 2706/2806 16016KT 9999 SCT030
TEMPO 2706/2712 4000 SHRA

Example: see airport list